createdAt,value
2017-10-18T00:00:04.551Z,10.90
2017-10-18T00:02:32.267Z,11.00
2017-10-18T00:04:59.911Z,11.10
2017-10-18T00:07:27.587Z,11.20
2017-10-18T00:09:55.291Z,11.20
2017-10-18T00:12:22.924Z,11.10
2017-10-18T00:14:50.573Z,11.10
2017-10-18T00:17:19.255Z,11.10
2017-10-18T00:19:46.907Z,11.10
2017-10-18T00:22:14.585Z,11.10
2017-10-18T00:24:42.282Z,11.10
2017-10-18T00:27:09.932Z,11.10
2017-10-18T00:29:37.582Z,11.10
2017-10-18T00:32:05.305Z,11.10
2017-10-18T00:37:12.955Z,11.00
2017-10-18T00:39:40.596Z,11.10
2017-10-18T00:42:08.234Z,11.10
2017-10-18T00:44:35.946Z,11.10
2017-10-18T00:47:04.322Z,11.10
2017-10-18T00:49:31.965Z,11.10
2017-10-18T00:51:59.694Z,11.00
2017-10-18T00:54:27.349Z,11.00
2017-10-18T00:59:22.699Z,11.00
2017-10-18T01:01:50.355Z,11.00
2017-10-18T01:04:20.825Z,10.90
2017-10-18T01:06:50.532Z,10.90
2017-10-18T01:09:19.580Z,10.90
2017-10-18T01:11:47.230Z,11.00
2017-10-18T01:14:15.755Z,10.90
2017-10-18T01:16:43.403Z,11.00
2017-10-18T01:19:11.047Z,10.90
2017-10-18T01:21:38.782Z,10.90
2017-10-18T01:24:06.478Z,10.90
2017-10-18T01:26:34.130Z,10.90
2017-10-18T01:29:01.837Z,10.80
2017-10-18T01:31:29.500Z,10.70
2017-10-18T01:36:41.832Z,10.70
2017-10-18T01:39:09.555Z,10.70
2017-10-18T01:41:37.196Z,10.70
2017-10-18T01:44:04.861Z,10.70
2017-10-18T01:46:32.594Z,10.70
2017-10-18T01:49:00.250Z,10.70
2017-10-18T01:53:55.623Z,10.60
2017-10-18T01:56:23.271Z,10.60
2017-10-18T01:58:50.919Z,10.50
2017-10-18T02:01:18.640Z,10.40
2017-10-18T02:03:46.291Z,10.40
2017-10-18T02:06:13.932Z,10.50
2017-10-18T02:08:42.497Z,10.50
2017-10-18T02:11:10.181Z,10.50
2017-10-18T02:13:38.146Z,10.60
2017-10-18T02:16:05.892Z,10.50
2017-10-18T02:18:33.574Z,10.50
2017-10-18T02:21:15.730Z,10.40
2017-10-18T02:23:43.406Z,10.30
2017-10-18T02:26:11.900Z,10.40
2017-10-18T02:28:39.681Z,10.40
2017-10-18T02:31:07.377Z,10.40
2017-10-18T02:33:35.022Z,10.30
2017-10-18T02:38:30.376Z,10.10
2017-10-18T02:40:58.971Z,10.20
2017-10-18T02:43:26.676Z,10.10
2017-10-18T02:45:54.329Z,10.20
2017-10-18T02:48:22.832Z,10.10
2017-10-18T02:53:19.036Z,10.00
2017-10-18T02:55:46.678Z,10.20
2017-10-18T02:58:16.291Z,10.30
2017-10-18T03:03:25.116Z,10.30
2017-10-18T03:05:52.792Z,10.30
2017-10-18T03:08:20.438Z,10.40
2017-10-18T03:10:53.895Z,10.40
2017-10-18T03:15:51.045Z,10.40
2017-10-18T03:18:19.614Z,10.30
2017-10-18T03:20:47.256Z,10.20
2017-10-18T03:23:14.913Z,10.00
2017-10-18T03:25:42.662Z,10.00
2017-10-18T03:28:10.309Z,9.70
2017-10-18T03:30:37.958Z,9.70
2017-10-18T03:33:07.337Z,9.70
2017-10-18T03:35:35.021Z,9.60
2017-10-18T03:38:02.690Z,9.60
2017-10-18T03:40:31.244Z,9.70
2017-10-18T03:42:58.898Z,9.60
2017-10-18T03:48:13.424Z,9.70
2017-10-18T03:50:41.158Z,9.80
2017-10-18T03:53:09.786Z,9.80
2017-10-18T03:55:37.470Z,9.90
2017-10-18T03:58:05.190Z,9.80
2017-10-18T04:00:32.826Z,9.90
2017-10-18T04:03:09.029Z,9.80
2017-10-18T04:05:36.698Z,9.80
2017-10-18T04:08:12.903Z,9.90
2017-10-18T04:10:40.818Z,9.80
2017-10-18T04:13:09.416Z,9.70
2017-10-18T04:15:37.153Z,9.70
2017-10-18T04:18:04.826Z,9.70
2017-10-18T04:20:40.548Z,9.60
2017-10-18T04:23:08.226Z,9.60
2017-10-18T04:25:35.910Z,9.60
2017-10-18T04:28:03.634Z,9.60
2017-10-18T04:30:32.235Z,9.60
2017-10-18T04:32:59.889Z,9.50
2017-10-18T04:35:27.584Z,9.50
2017-10-18T04:37:55.241Z,9.50
2017-10-18T04:40:22.880Z,9.40
2017-10-18T04:42:50.562Z,9.50
2017-10-18T04:45:18.208Z,9.50
2017-10-18T04:50:25.015Z,9.30
2017-10-18T04:52:53.591Z,9.40
2017-10-18T04:55:21.262Z,9.40
2017-10-18T04:57:48.990Z,9.40
2017-10-18T05:00:16.652Z,9.40
2017-10-18T05:02:44.290Z,9.40
2017-10-18T05:05:11.990Z,9.30
2017-10-18T05:07:39.630Z,9.20
2017-10-18T05:10:08.115Z,9.10
2017-10-18T05:12:36.751Z,8.90
2017-10-18T05:15:05.335Z,8.90
2017-10-18T05:20:00.713Z,8.90
2017-10-18T05:22:30.207Z,8.90
2017-10-18T05:24:58.358Z,9.00
2017-10-18T05:30:05.677Z,8.70
2017-10-18T05:32:33.363Z,8.60
2017-10-18T05:35:01.042Z,8.70
2017-10-18T05:37:28.767Z,8.80
2017-10-18T05:39:56.464Z,8.80
2017-10-18T05:42:24.098Z,8.90
2017-10-18T05:44:51.807Z,8.70
2017-10-18T05:47:20.377Z,8.70
2017-10-18T05:49:50.127Z,8.60
2017-10-18T05:52:18.712Z,8.60
2017-10-18T05:54:47.535Z,8.70
2017-10-18T05:57:15.214Z,8.70
2017-10-18T05:59:43.120Z,8.80
2017-10-18T06:02:10.907Z,8.90
2017-10-18T06:07:17.541Z,8.80
2017-10-18T06:12:13.816Z,9.00
2017-10-18T06:14:41.524Z,9.00
2017-10-18T06:17:10.029Z,9.00
2017-10-18T06:19:37.688Z,9.00
2017-10-18T06:22:05.403Z,9.00
2017-10-18T06:24:37.450Z,9.00
2017-10-18T06:27:05.162Z,9.00
2017-10-18T06:29:32.829Z,9.10
2017-10-18T06:32:01.394Z,9.20
2017-10-18T06:34:30.083Z,9.30
2017-10-18T06:36:57.788Z,9.40
2017-10-18T06:41:53.126Z,9.60
2017-10-18T06:44:21.614Z,9.90
2017-10-18T06:46:49.270Z,10.00
2017-10-18T06:49:16.998Z,10.10
2017-10-18T06:51:44.653Z,10.30
2017-10-18T06:54:12.318Z,10.40
2017-10-18T06:56:40.020Z,10.60
2017-10-18T06:59:07.702Z,10.80
2017-10-18T07:01:35.373Z,10.90
2017-10-18T07:06:31.712Z,10.40
2017-10-18T07:08:59.380Z,10.70
2017-10-18T07:11:27.091Z,10.90
2017-10-18T07:13:54.743Z,11.20
2017-10-18T07:16:23.209Z,11.50
2017-10-18T07:18:50.911Z,11.70
2017-10-18T07:21:19.510Z,11.80
2017-10-18T07:23:47.157Z,12.10
2017-10-18T07:26:15.864Z,11.90
2017-10-18T07:31:22.711Z,11.80
2017-10-18T07:33:50.359Z,12.40
2017-10-18T07:36:19.676Z,12.50
2017-10-18T07:38:47.365Z,12.80
2017-10-18T07:43:57.682Z,13.40
2017-10-18T07:46:28.355Z,13.80
2017-10-18T07:48:56.576Z,14.10
2017-10-18T07:51:26.952Z,14.20
2017-10-18T07:54:02.280Z,14.30
2017-10-18T07:56:34.129Z,14.40
2017-10-18T07:59:01.792Z,14.60
2017-10-18T08:01:29.412Z,14.70
2017-10-18T08:03:57.111Z,15.10
2017-10-18T08:06:25.618Z,14.80
2017-10-18T08:08:53.246Z,14.90
2017-10-18T08:11:20.970Z,13.70
2017-10-18T08:13:48.594Z,13.80
2017-10-18T08:16:16.236Z,14.40
2017-10-18T08:18:43.948Z,15.00
2017-10-18T08:21:11.579Z,15.40
2017-10-18T08:23:39.240Z,15.50
2017-10-18T08:26:06.950Z,15.70
2017-10-18T08:28:34.593Z,15.90
2017-10-18T08:31:02.244Z,15.80
2017-10-18T08:33:29.961Z,16.00
2017-10-18T08:35:57.596Z,16.60
2017-10-18T08:38:25.241Z,17.10
2017-10-18T08:40:52.938Z,16.80
2017-10-18T08:43:20.585Z,16.00
2017-10-18T08:45:48.220Z,16.20
2017-10-18T08:48:15.966Z,16.20
2017-10-18T08:50:43.612Z,16.80
2017-10-18T08:53:12.206Z,17.10
2017-10-18T08:55:39.911Z,17.20
2017-10-18T08:58:07.565Z,17.30
2017-10-18T09:03:16.394Z,16.90
2017-10-18T09:05:44.036Z,17.20
2017-10-18T09:08:11.670Z,17.40
2017-10-18T09:10:39.380Z,17.70
2017-10-18T09:15:47.114Z,17.10
2017-10-18T09:21:02.173Z,16.50
2017-10-18T09:23:32.168Z,17.50
2017-10-18T09:26:00.560Z,17.60
2017-10-18T09:30:55.916Z,18.00
2017-10-18T09:33:23.561Z,17.90
2017-10-18T09:35:51.272Z,18.20
2017-10-18T09:38:20.067Z,18.40
2017-10-18T09:40:48.112Z,18.80
2017-10-18T09:43:15.838Z,18.80
2017-10-18T09:45:43.486Z,19.00
2017-10-18T09:48:11.993Z,18.80
2017-10-18T09:50:40.051Z,19.20
2017-10-18T09:53:07.694Z,19.10
2017-10-18T09:55:35.344Z,19.30
2017-10-18T09:58:03.035Z,19.50
2017-10-18T10:00:30.703Z,19.00
2017-10-18T10:02:59.491Z,19.50
2017-10-18T10:05:28.639Z,19.90
2017-10-18T10:07:56.277Z,20.10
2017-10-18T10:10:23.917Z,20.00
2017-10-18T10:12:51.620Z,20.30
2017-10-18T10:15:19.263Z,20.40
2017-10-18T10:17:52.238Z,20.30
2017-10-18T10:20:19.886Z,20.60
2017-10-18T10:22:47.528Z,21.00
2017-10-18T10:30:28.392Z,21.40
2017-10-18T10:32:56.025Z,21.30
2017-10-18T10:35:23.667Z,21.80
2017-10-18T10:37:51.359Z,21.50
2017-10-18T10:40:19.006Z,21.60
2017-10-18T10:42:46.641Z,22.10
2017-10-18T10:45:14.342Z,21.80
2017-10-18T10:47:41.975Z,21.10
2017-10-18T10:50:09.609Z,20.60
2017-10-18T10:52:38.255Z,21.10
2017-10-18T10:55:05.896Z,22.20
2017-10-18T11:00:15.323Z,22.30
2017-10-18T11:02:42.972Z,22.80
2017-10-18T11:05:10.621Z,22.80
2017-10-18T11:07:38.326Z,22.50
2017-10-18T11:10:05.990Z,22.50
2017-10-18T11:12:33.635Z,22.90
2017-10-18T11:15:01.346Z,23.00
2017-10-18T11:17:28.989Z,23.60
2017-10-18T11:19:57.471Z,23.80
2017-10-18T11:22:25.192Z,24.00
2017-10-18T11:24:52.838Z,23.50
2017-10-18T11:27:20.496Z,22.40
2017-10-18T11:29:48.186Z,22.80
2017-10-18T11:32:15.822Z,23.10
2017-10-18T11:34:43.460Z,23.20
2017-10-18T11:37:11.160Z,23.80
2017-10-18T11:39:39.629Z,23.80
2017-10-18T11:42:07.283Z,24.00
2017-10-18T11:44:34.983Z,23.50
2017-10-18T11:47:02.617Z,23.80
2017-10-18T11:49:30.257Z,24.20
2017-10-18T11:51:57.963Z,23.50
2017-10-18T11:54:25.593Z,24.30
2017-10-18T11:56:53.227Z,24.40
2017-10-18T11:59:21.785Z,24.40
2017-10-18T12:04:17.990Z,23.90
2017-10-18T12:06:45.705Z,24.50
2017-10-18T12:09:14.126Z,24.10
2017-10-18T12:11:41.755Z,23.30
2017-10-18T12:14:09.447Z,23.10
2017-10-18T12:16:37.833Z,23.00
2017-10-18T12:19:05.461Z,22.80
2017-10-18T12:21:33.144Z,23.10
2017-10-18T12:26:39.994Z,24.20
2017-10-18T12:29:08.480Z,24.60
2017-10-18T12:31:36.108Z,24.10
2017-10-18T12:34:04.570Z,24.10
2017-10-18T12:36:32.228Z,23.80
2017-10-18T12:38:59.859Z,24.40
2017-10-18T12:41:27.585Z,23.60
2017-10-18T12:46:22.852Z,24.40
2017-10-18T12:48:50.538Z,24.30
2017-10-18T12:51:18.171Z,24.60
2017-10-18T12:53:45.798Z,24.80
2017-10-18T12:56:13.519Z,24.90
2017-10-18T12:58:41.145Z,25.00
2017-10-18T13:01:08.789Z,23.70
2017-10-18T13:03:36.473Z,23.60
2017-10-18T13:06:04.101Z,23.90
2017-10-18T13:08:31.730Z,24.60
2017-10-18T13:13:27.092Z,23.80
2017-10-18T13:15:54.714Z,23.90
2017-10-18T13:18:22.396Z,24.40
2017-10-18T13:20:50.040Z,24.00
2017-10-18T13:23:17.658Z,24.30
2017-10-18T13:25:45.340Z,24.30
2017-10-18T13:28:12.985Z,24.50
2017-10-18T13:30:40.709Z,23.90
2017-10-18T13:33:08.404Z,23.30
2017-10-18T13:35:36.048Z,23.10
2017-10-18T13:38:03.668Z,23.40
2017-10-18T13:45:38.170Z,22.40
2017-10-18T13:48:05.806Z,22.00
2017-10-18T13:50:33.440Z,22.30
2017-10-18T13:53:01.396Z,22.30
2017-10-18T13:55:29.025Z,22.00
2017-10-18T13:57:56.657Z,22.30
2017-10-18T14:00:24.337Z,21.80
2017-10-18T14:02:51.985Z,21.60
2017-10-18T14:05:20.450Z,21.70
2017-10-18T14:07:48.135Z,21.60
2017-10-18T14:10:16.741Z,21.80
2017-10-18T14:12:44.369Z,22.30
2017-10-18T14:15:12.059Z,22.20
2017-10-18T14:17:40.539Z,21.80
2017-10-18T14:20:08.157Z,21.80
2017-10-18T14:22:35.850Z,21.60
2017-10-18T14:25:03.490Z,21.60
2017-10-18T14:27:32.043Z,21.50
2017-10-18T14:29:59.764Z,21.70
2017-10-18T14:32:27.418Z,21.40
2017-10-18T14:34:55.089Z,21.60
2017-10-18T14:37:22.781Z,21.60
2017-10-18T14:39:50.408Z,21.60
2017-10-18T14:42:18.039Z,22.00
2017-10-18T14:44:45.754Z,21.80
2017-10-18T14:47:13.384Z,21.50
2017-10-18T14:49:41.021Z,21.30
2017-10-18T14:52:08.716Z,21.30
2017-10-18T14:54:36.360Z,21.30
2017-10-18T14:57:04.954Z,21.10
2017-10-18T14:59:32.652Z,21.00
2017-10-18T15:02:00.286Z,21.00
2017-10-18T15:04:28.762Z,21.00
2017-10-18T15:06:57.333Z,20.90
2017-10-18T15:09:24.967Z,21.00
2017-10-18T15:11:52.605Z,21.00
2017-10-18T15:16:59.390Z,20.70
2017-10-18T15:19:27.092Z,20.60
2017-10-18T15:21:54.717Z,20.60
2017-10-18T15:24:22.355Z,20.40
2017-10-18T15:29:17.681Z,20.70
2017-10-18T15:31:45.324Z,20.60
2017-10-18T15:34:13.025Z,20.80
2017-10-18T15:36:40.662Z,20.80
2017-10-18T15:39:08.295Z,20.40
2017-10-18T15:41:36.011Z,20.40
2017-10-18T15:44:03.644Z,20.20
2017-10-18T15:46:32.029Z,20.10
2017-10-18T15:48:59.716Z,20.10
2017-10-18T15:51:27.353Z,20.10
2017-10-18T15:53:55.002Z,20.10
2017-10-18T15:56:22.679Z,19.90
2017-10-18T15:58:51.267Z,20.00
2017-10-18T16:01:18.900Z,19.90
2017-10-18T16:03:46.605Z,19.70
2017-10-18T16:06:14.245Z,19.70
2017-10-18T16:08:41.888Z,19.70
2017-10-18T16:11:09.584Z,19.30
2017-10-18T16:13:37.214Z,19.40
2017-10-18T16:16:04.848Z,19.20
2017-10-18T16:18:32.539Z,19.00
2017-10-18T16:21:00.177Z,19.10
2017-10-18T16:23:27.820Z,19.00
2017-10-18T16:25:55.523Z,18.90
2017-10-18T16:28:23.986Z,19.00
2017-10-18T16:30:51.608Z,19.00
2017-10-18T16:33:19.291Z,19.00
2017-10-18T16:35:46.924Z,18.80
2017-10-18T16:38:14.555Z,18.70
2017-10-18T16:43:21.321Z,18.70
2017-10-18T16:45:48.996Z,18.60
2017-10-18T16:48:16.647Z,18.60
2017-10-18T16:50:44.267Z,18.60
2017-10-18T16:53:11.951Z,18.50
2017-10-18T16:58:07.190Z,18.50
2017-10-18T17:00:34.883Z,18.30
2017-10-18T17:03:03.359Z,18.30
2017-10-18T17:05:30.979Z,18.30
2017-10-18T17:07:58.665Z,17.70
2017-10-18T17:10:26.298Z,17.80
2017-10-18T17:15:21.597Z,17.50
2017-10-18T17:17:49.215Z,17.60
2017-10-18T17:20:16.836Z,17.30
2017-10-18T17:22:44.519Z,17.20
2017-10-18T17:25:12.138Z,17.00
2017-10-18T17:27:39.788Z,16.60
2017-10-18T17:30:07.488Z,16.80
2017-10-18T17:32:35.122Z,16.90
2017-10-18T17:35:02.745Z,16.60
2017-10-18T17:37:30.429Z,16.30
2017-10-18T17:39:58.048Z,16.30
2017-10-18T17:42:25.677Z,16.00
2017-10-18T17:47:20.980Z,16.30
2017-10-18T17:49:48.608Z,16.20
2017-10-18T17:52:17.272Z,16.20
2017-10-18T17:54:44.921Z,16.20
2017-10-18T17:57:12.552Z,16.30
2017-10-18T17:59:40.247Z,16.20
2017-10-18T18:02:08.747Z,16.20
2017-10-18T18:07:16.523Z,15.80
2017-10-18T18:09:44.157Z,15.50
2017-10-18T18:12:11.776Z,15.40
2017-10-18T18:14:39.458Z,15.10
2017-10-18T18:17:07.956Z,15.30
2017-10-18T18:19:36.545Z,15.30
2017-10-18T18:22:05.215Z,15.20
2017-10-18T18:24:32.898Z,15.10
2017-10-18T18:27:00.526Z,15.10
2017-10-18T18:29:28.322Z,15.00
2017-10-18T18:31:56.919Z,14.80
2017-10-18T18:34:24.662Z,14.70
2017-10-18T18:36:52.380Z,14.90
2017-10-18T18:39:20.016Z,14.80
2017-10-18T18:41:47.737Z,14.80
2017-10-18T18:44:15.431Z,14.80
2017-10-18T18:46:43.119Z,14.80
2017-10-18T18:49:10.757Z,14.70
2017-10-18T18:51:38.450Z,14.70
2017-10-18T18:54:06.067Z,14.80
2017-10-18T18:56:34.567Z,14.90
2017-10-18T18:59:02.247Z,15.00
2017-10-18T19:01:29.906Z,14.90
2017-10-18T19:03:57.559Z,14.90
2017-10-18T19:06:25.223Z,14.60
2017-10-18T19:11:32.064Z,14.60
2017-10-18T19:13:59.695Z,14.70
2017-10-18T19:16:27.396Z,14.70
2017-10-18T19:18:55.456Z,14.70
2017-10-18T19:21:23.007Z,14.70
2017-10-18T19:23:50.649Z,14.60
2017-10-18T19:26:19.174Z,14.30
2017-10-18T19:28:46.808Z,14.00
2017-10-18T19:31:15.650Z,14.10
2017-10-18T19:33:43.457Z,14.20
2017-10-18T19:36:11.956Z,14.10
2017-10-18T19:41:08.104Z,13.70
2017-10-18T19:43:35.957Z,13.80
2017-10-18T19:46:03.689Z,13.80
2017-10-18T19:48:31.672Z,13.80
2017-10-18T19:50:59.616Z,13.80
2017-10-18T19:53:27.468Z,13.70
2017-10-18T19:55:55.627Z,13.80
2017-10-18T19:58:23.951Z,13.80
2017-10-18T20:00:51.753Z,13.60
2017-10-18T20:03:19.636Z,13.60
2017-10-18T20:05:47.770Z,13.50
2017-10-18T20:08:15.614Z,13.50
2017-10-18T20:10:43.423Z,13.50
2017-10-18T20:15:39.100Z,13.30
2017-10-18T20:18:06.735Z,13.40
2017-10-18T20:20:34.412Z,13.20
2017-10-18T20:23:02.033Z,13.30
2017-10-18T20:25:29.660Z,13.20
2017-10-18T20:30:24.943Z,13.10
2017-10-18T20:35:31.812Z,13.20
2017-10-18T20:37:59.454Z,13.20
2017-10-18T20:40:27.262Z,13.40
2017-10-18T20:42:54.987Z,13.30
2017-10-18T20:45:22.626Z,13.20
2017-10-18T20:47:50.269Z,13.20
2017-10-18T20:50:17.955Z,13.20
2017-10-18T20:52:45.793Z,13.20
2017-10-18T20:55:13.481Z,13.00
2017-10-18T20:57:41.216Z,13.00
2017-10-18T21:00:08.844Z,12.90
2017-10-18T21:02:36.547Z,12.90
2017-10-18T21:09:59.909Z,12.80
2017-10-18T21:12:27.586Z,12.60
2017-10-18T21:14:55.313Z,12.60
2017-10-18T21:17:23.242Z,12.60
2017-10-18T21:19:50.916Z,12.60
2017-10-18T21:22:18.556Z,12.50
2017-10-18T21:24:47.831Z,12.40
2017-10-18T21:27:14.162Z,12.40
2017-10-18T21:29:42.028Z,12.40
2017-10-18T21:32:09.830Z,12.30
2017-10-18T21:34:37.449Z,12.20
2017-10-18T21:37:05.072Z,12.20
2017-10-18T21:42:13.984Z,12.20
2017-10-18T21:44:41.657Z,12.20
2017-10-18T21:47:09.618Z,12.10
2017-10-18T21:49:37.378Z,11.90
2017-10-18T21:52:04.881Z,11.90
2017-10-18T21:54:32.507Z,11.90
2017-10-18T21:57:00.191Z,11.90
2017-10-18T21:59:27.811Z,11.90
2017-10-18T22:01:55.449Z,11.90
2017-10-18T22:06:50.760Z,11.80
2017-10-18T22:09:18.382Z,11.70
2017-10-18T22:11:46.082Z,11.60
2017-10-18T22:14:13.722Z,11.60
2017-10-18T22:16:41.361Z,11.60
2017-10-18T22:19:10.215Z,11.40
2017-10-18T22:21:37.875Z,11.40
2017-10-18T22:26:33.254Z,11.30
2017-10-18T22:29:00.882Z,11.30
2017-10-18T22:31:28.505Z,11.20
2017-10-18T22:33:56.210Z,11.30
2017-10-18T22:36:23.851Z,11.20
2017-10-18T22:38:51.473Z,11.20
2017-10-18T22:41:19.173Z,10.80
2017-10-18T22:43:46.798Z,10.50
2017-10-18T22:46:14.426Z,10.60
2017-10-18T22:48:42.109Z,10.50
2017-10-18T22:51:09.732Z,10.30
2017-10-18T22:53:37.362Z,10.40
2017-10-18T22:56:05.041Z,10.60
2017-10-18T22:58:32.671Z,10.70
2017-10-18T23:01:00.294Z,10.80
2017-10-18T23:06:07.113Z,10.80
2017-10-18T23:11:02.454Z,10.80
2017-10-18T23:13:30.085Z,10.70
2017-10-18T23:15:57.761Z,10.70
2017-10-18T23:18:25.385Z,10.60
2017-10-18T23:20:53.012Z,10.60
2017-10-18T23:23:20.698Z,10.50
2017-10-18T23:25:48.323Z,10.40
2017-10-18T23:28:15.957Z,10.40
2017-10-18T23:30:43.632Z,10.20
2017-10-18T23:33:11.260Z,10.20
2017-10-18T23:35:38.892Z,10.10
2017-10-18T23:38:06.584Z,10.00
2017-10-18T23:40:34.208Z,10.10
2017-10-18T23:43:01.836Z,10.10
2017-10-18T23:45:29.515Z,10.10
2017-10-18T23:47:57.143Z,10.10
2017-10-18T23:50:24.765Z,9.90
2017-10-18T23:52:55.431Z,9.70
2017-10-18T23:55:23.050Z,9.80
2017-10-18T23:57:50.680Z,9.90
